»·PEaware :: N122AJ KJAC-KRKS

N122AJ :: KJAC-KRKS

FLIGHT INFORMATION

Flight Status: Arrived
Operator: Privately registered:
United States
More flights under this callsign
Pilot: Andrew J. (13363)
Aircraft: BEECH AIRCRAFT A90-E90 KING AIR
(BE9L)
More flights by this aircraft type
Origin: KJAC Jackson Hole
United States
Destination: KRKS Rock Springs-Sweetwater
United States
More flights between these airports :: More routes between these airports
Route: +KICNE RKS
File this flight plan on PilotEdge
Remarks: WHISKEY RUN
Altitude:
(Current/Filed)
21,000ft
Speed:
(Current/Filed)
360kts
Departed: 27-Nov-17 07:36 PM
Arrived: 27-Nov-17 08:31 PM
Distance/Time
Traveled:
141nm/0:54
Distance/Time
To Go:
Arrived

Flight Plot

Page will automatically refresh every two minutes.

Flight plan parsing failed; only flown route is shown


Map Options




Map Legend


Flown Route
Filed Route
Departure Airport
Arrival Airport
Navaid (VOR, NDB)
Fix

Horizontal Profiles

Position Reports

Time Latitude Longitude Heading Altitude Ground
Speed
27-Nov-17 19:23 43.599403 -110.738867 108 6455ft 0kts
27-Nov-17 19:24 43.599403 -110.738867 108 6455ft 0kts
27-Nov-17 19:25 43.599403 -110.738867 108 6455ft 0kts
27-Nov-17 19:26 43.599403 -110.738867 108 6455ft 0kts
27-Nov-17 19:27 43.599403 -110.738867 108 6455ft 0kts
27-Nov-17 19:28 43.599403 -110.738867 108 6455ft 0kts
27-Nov-17 19:29 43.599403 -110.738867 108 6455ft 0kts
27-Nov-17 19:30 43.599403 -110.738866 107 6455ft 0kts
27-Nov-17 19:31 43.599403 -110.738866 107 6455ft 0kts
27-Nov-17 19:32 43.599403 -110.738866 107 6455ft 0kts
27-Nov-17 19:33 43.599403 -110.738866 107 6455ft 0kts
27-Nov-17 19:34 43.599403 -110.738866 107 6455ft 0kts
27-Nov-17 19:35 43.599403 -110.738866 107 6455ft 0kts
27-Nov-17 19:36 43.599403 -110.738866 107 6455ft 0kts
27-Nov-17 19:37 43.599403 -110.738866 108 6455ft 0kts
27-Nov-17 19:38 43.599284 -110.738681 182 6455ft 5kts
27-Nov-17 19:39 43.599035 -110.740444 299 6455ft 5kts
27-Nov-17 19:40 43.599849 -110.741430 22 6455ft 13kts
27-Nov-17 19:41 43.625392 -110.730281 348 7316ft 133kts
27-Nov-17 19:42 43.615244 -110.760707 198 9650ft 117kts
27-Nov-17 19:43 43.581188 -110.777891 206 11400ft 135kts
27-Nov-17 19:44 43.546159 -110.796506 206 13272ft 137kts
27-Nov-17 19:45 43.510815 -110.817808 205 14951ft 142kts
27-Nov-17 19:46 43.472512 -110.839242 217 16503ft 148kts
27-Nov-17 19:47 43.437897 -110.860024 221 18246ft 136kts
27-Nov-17 19:48 43.403436 -110.880565 221 19701ft 136kts
27-Nov-17 19:49 43.368900 -110.900890 222 20945ft 141kts
27-Nov-17 19:50 43.324406 -110.927643 216 21000ft 201kts
27-Nov-17 19:51 43.269431 -110.959243 214 20993ft 223kts
27-Nov-17 19:52 43.208167 -110.974762 154 21002ft 271kts
27-Nov-17 19:53 43.152271 -110.904837 144 21043ft 273kts
27-Nov-17 19:54 43.096451 -110.834445 144 21045ft 273kts
27-Nov-17 19:55 43.040862 -110.764907 144 21046ft 273kts
27-Nov-17 19:56 42.985130 -110.695380 144 21046ft 274kts
27-Nov-17 19:57 42.928078 -110.624407 144 21048ft 279kts
27-Nov-17 19:58 42.871449 -110.554170 144 20976ft 283kts
27-Nov-17 19:59 42.813382 -110.482272 144 20966ft 282kts
27-Nov-17 20:00 42.755533 -110.410880 144 20967ft 281kts
27-Nov-17 20:01 42.698325 -110.340463 145 20961ft 281kts
27-Nov-17 20:02 42.641158 -110.270271 145 20959ft 279kts
27-Nov-17 20:03 42.583699 -110.199907 145 20960ft 279kts
27-Nov-17 20:04 42.526290 -110.129803 145 20960ft 279kts
27-Nov-17 20:05 42.468579 -110.059478 146 20961ft 279kts
27-Nov-17 20:06 42.411292 -109.989883 146 20967ft 278kts
27-Nov-17 20:07 42.353714 -109.920111 146 20963ft 279kts
27-Nov-17 20:08 42.296162 -109.850519 146 20963ft 279kts
27-Nov-17 20:09 42.238265 -109.780718 146 20964ft 279kts
27-Nov-17 20:10 42.180546 -109.711286 146 20965ft 279kts
27-Nov-17 20:11 42.121255 -109.640379 145 20192ft 297kts
27-Nov-17 20:12 42.058857 -109.565656 144 18828ft 302kts
27-Nov-17 20:13 41.996735 -109.491559 144 17477ft 301kts
27-Nov-17 20:14 41.933881 -109.418263 143 16119ft 299kts
27-Nov-17 20:15 41.888662 -109.364801 141 15167ft 282kts
27-Nov-17 20:16 41.839333 -109.306227 142 14439ft 258kts
27-Nov-17 20:17 41.786624 -109.244000 142 13675ft 248kts
27-Nov-17 20:18 41.736102 -109.184459 142 13263ft 238kts
27-Nov-17 20:19 41.686770 -109.126465 143 12859ft 235kts
27-Nov-17 20:20 41.637804 -109.069016 143 12459ft 234kts
27-Nov-17 20:21 41.594831 -109.004479 113 12058ft 241kts
27-Nov-17 20:22 41.575251 -108.918637 103 11602ft 242kts
27-Nov-17 20:23 41.560401 -108.832436 108 10801ft 236kts
27-Nov-17 20:24 41.542920 -108.749062 104 10004ft 233kts
27-Nov-17 20:25 41.546103 -108.663892 76 9212ft 236kts
27-Nov-17 20:26 41.540650 -108.588524 157 9355ft 191kts
27-Nov-17 20:27 41.516130 -108.622312 276 9338ft 164kts
27-Nov-17 20:28 41.524904 -108.682095 280 9145ft 163kts
27-Nov-17 20:29 41.538401 -108.739001 286 8944ft 159kts
27-Nov-17 20:30 41.548710 -108.793840 272 9006ft 141kts
27-Nov-17 20:31 41.554061 -108.841784 278 9299ft 132kts
27-Nov-17 20:32 41.563893 -108.893721 278 8977ft 155kts
27-Nov-17 20:33 41.574233 -108.952292 280 8195ft 166kts
27-Nov-17 20:34 41.583704 -109.004081 282 7432ft 112kts
27-Nov-17 20:35 41.590306 -109.039558 277 6911ft 97kts
27-Nov-17 20:36 41.594863 -109.066693 282 6763ft 22kts
27-Nov-17 20:37 41.599013 -109.064938 48 6763ft 15kts
27-Nov-17 20:38 41.599167 -109.064066 327 6763ft 2kts
27-Nov-17 20:39 41.599201 -109.064102 316 6763ft 0kts
27-Nov-17 20:40 41.599201 -109.064102 316 6763ft 0kts
27-Nov-17 20:41 41.599201 -109.064102 316 6763ft 0kts
27-Nov-17 20:42 41.599201 -109.064102 316 6763ft 0kts
27-Nov-17 20:43 41.599201 -109.064102 316 6763ft 0kts
27-Nov-17 20:44 41.599201 -109.064102 316 6763ft 0kts

Navigation Log

Ident Type
Flight plan parsing failed, navigation log unavailable